createdAt,value
2016-10-07T19:33:27.282Z,1023.67
2016-10-07T19:33:52.986Z,1023.66
2016-10-07T19:34:18.673Z,1023.65
2016-10-07T19:34:44.343Z,1023.67
2016-10-07T19:35:09.967Z,1023.67
2016-10-07T19:35:35.591Z,1023.66
2016-10-07T19:36:01.180Z,1023.65
2016-10-07T19:36:26.885Z,1023.64
2016-10-07T19:36:52.551Z,1023.67
2016-10-07T19:37:18.154Z,1023.64
2016-10-07T19:37:43.787Z,1023.68
2016-10-07T19:38:09.388Z,1023.66
2016-10-07T19:38:35.056Z,1023.66
2016-10-07T19:39:00.818Z,1023.68
2016-10-07T19:39:26.492Z,1023.64
2016-10-07T19:39:52.228Z,1023.68
2016-10-07T19:40:17.985Z,1023.67
2016-10-07T19:40:43.888Z,1023.67
2016-10-07T19:41:09.674Z,1023.71
2016-10-07T19:41:35.350Z,1023.69
2016-10-07T19:42:01.111Z,1023.69
2016-10-07T19:42:26.712Z,1023.66
2016-10-07T19:42:52.396Z,1023.7
2016-10-07T19:43:18.086Z,1023.7
2016-10-07T19:43:43.732Z,1023.69
2016-10-07T19:44:09.401Z,1023.72
2016-10-07T19:44:35.109Z,1023.7
2016-10-07T19:45:00.831Z,1023.7
2016-10-07T19:45:26.511Z,1023.71
2016-10-07T19:45:52.204Z,1023.72
2016-10-07T19:46:17.865Z,1023.7
2016-10-07T19:46:43.476Z,1023.71
2016-10-07T19:47:09.582Z,1023.7
2016-10-07T19:47:35.191Z,1023.7
2016-10-07T19:48:00.782Z,1023.75
2016-10-07T19:48:26.340Z,1023.71
2016-10-07T19:48:51.959Z,1023.72
2016-10-07T19:49:17.595Z,1023.78
2016-10-07T19:49:43.245Z,1023.75
2016-10-07T19:50:08.813Z,1023.76
2016-10-07T19:50:34.547Z,1023.79
2016-10-07T19:51:00.198Z,1023.78
2016-10-07T19:51:25.734Z,1023.79
2016-10-07T19:51:51.492Z,1023.75
2016-10-07T19:52:17.058Z,1023.77
2016-10-07T19:52:42.622Z,1023.78
2016-10-07T19:53:08.180Z,1023.76
2016-10-07T19:53:33.830Z,1023.78
2016-10-07T19:53:59.531Z,1023.76
2016-10-07T19:54:25.299Z,1023.77
2016-10-07T19:54:50.906Z,1023.79
2016-10-07T19:55:16.564Z,1023.8
2016-10-07T19:55:42.424Z,1023.79
2016-10-07T19:56:08.157Z,1023.78
2016-10-07T19:56:33.769Z,1023.8
2016-10-07T19:56:59.504Z,1023.8
2016-10-07T19:57:25.236Z,1023.81
2016-10-07T19:58:33.711Z,1023.74
2016-10-07T19:58:59.277Z,1023.8
2016-10-07T19:59:24.885Z,1023.78
2016-10-07T19:59:50.403Z,1023.76
2016-10-07T20:00:16.133Z,1023.79
2016-10-07T20:00:41.684Z,1023.78
2016-10-07T20:01:07.262Z,1023.8
2016-10-07T20:01:32.892Z,1023.76
2016-10-07T20:01:58.767Z,1023.78
2016-10-07T20:02:24.492Z,1023.76
2016-10-07T20:02:50.108Z,1023.78
2016-10-07T20:03:15.690Z,1023.82
2016-10-07T20:03:41.294Z,1023.77
2016-10-07T20:04:07.234Z,1023.78
2016-10-07T20:04:32.542Z,1023.84
2016-10-07T20:05:30.666Z,1023.76
2016-10-07T20:05:56.328Z,1023.8
2016-10-07T20:06:21.944Z,1023.8
2016-10-07T20:06:47.694Z,1023.78
2016-10-07T20:07:13.242Z,1023.83
2016-10-07T20:07:39.080Z,1023.79
2016-10-07T20:08:05.052Z,1023.8
2016-10-07T20:08:30.659Z,1023.84
2016-10-07T20:08:56.471Z,1023.83
2016-10-07T20:09:22.137Z,1023.83
2016-10-07T20:09:47.696Z,1023.78
2016-10-07T20:10:13.371Z,1023.81
2016-10-07T20:10:39.094Z,1023.78
2016-10-07T20:11:04.676Z,1023.84
2016-10-07T20:11:30.469Z,1023.8
2016-10-07T20:11:56.341Z,1023.84
2016-10-07T20:12:22.145Z,1023.83
2016-10-07T20:12:47.728Z,1023.8
2016-10-07T20:13:13.500Z,1023.83
2016-10-07T20:13:39.079Z,1023.8
2016-10-07T20:14:04.994Z,1023.8
2016-10-07T20:14:30.767Z,1023.83
2016-10-07T20:14:56.350Z,1023.84
2016-10-07T20:15:21.918Z,1023.86
2016-10-07T20:15:47.477Z,1023.82
2016-10-07T20:16:13.124Z,1023.81
2016-10-07T20:16:38.702Z,1023.8
2016-10-07T20:17:04.335Z,1023.8
2016-10-07T20:18:55.783Z,1023.8
2016-10-07T20:19:21.370Z,1023.86
2016-10-07T20:19:46.939Z,1023.84
2016-10-07T20:20:12.513Z,1023.87
2016-10-07T20:20:38.242Z,1023.87
2016-10-07T20:21:03.837Z,1023.84
2016-10-07T20:21:29.546Z,1023.86
2016-10-07T20:21:55.295Z,1023.82
2016-10-07T20:22:21.002Z,1023.8
2016-10-07T20:22:46.610Z,1023.83
2016-10-07T20:23:12.192Z,1023.82
2016-10-07T20:23:37.771Z,1023.86
2016-10-07T20:24:03.343Z,1023.86
2016-10-07T20:24:28.936Z,1023.82
2016-10-07T20:24:54.500Z,1023.83
2016-10-07T20:25:20.063Z,1023.87
2016-10-07T20:25:45.634Z,1023.83
2016-10-07T20:26:11.193Z,1023.88
2016-10-07T20:26:36.968Z,1023.81
2016-10-07T20:27:02.675Z,1023.84
2016-10-07T20:27:28.313Z,1023.83
2016-10-07T20:27:53.890Z,1023.85
2016-10-07T20:28:19.517Z,1023.88
2016-10-07T20:28:45.064Z,1023.85
2016-10-07T20:29:10.715Z,1023.9
2016-10-07T20:29:36.543Z,1023.88
2016-10-07T20:30:02.130Z,1023.89
2016-10-07T20:30:27.756Z,1023.92
2016-10-07T20:30:53.731Z,1023.95
2016-10-07T20:31:19.443Z,1023.91
2016-10-07T20:31:45.047Z,1023.93
2016-10-07T20:32:10.610Z,1023.95
2016-10-07T20:33:24.055Z,1023.91
2016-10-07T20:33:49.709Z,1023.94
2016-10-07T20:34:15.354Z,1023.95
2016-10-07T20:34:41.245Z,1023.94
2016-10-07T20:35:06.589Z,1023.94
2016-10-07T20:35:32.156Z,1023.98
2016-10-07T20:35:57.704Z,1023.97
2016-10-07T20:36:23.305Z,1023.94
2016-10-07T20:36:48.925Z,1023.96
2016-10-07T20:37:14.494Z,1023.94
2016-10-07T20:37:40.170Z,1023.97
2016-10-07T20:38:06.989Z,1023.93
2016-10-07T20:38:32.682Z,1023.91
2016-10-07T20:38:58.227Z,1023.96
2016-10-07T20:39:23.816Z,1023.95
2016-10-07T20:39:49.401Z,1023.93
2016-10-07T20:40:15.145Z,1023.93
2016-10-07T20:41:33.730Z,1023.97
2016-10-07T20:41:59.391Z,1023.95
2016-10-07T20:42:24.984Z,1023.97
2016-10-07T20:42:51.094Z,1023.95
2016-10-07T20:43:16.694Z,1023.93
2016-10-07T20:43:42.298Z,1023.96
2016-10-07T20:44:07.965Z,1023.92
2016-10-07T20:44:33.606Z,1023.97
2016-10-07T20:44:59.197Z,1023.96
2016-10-07T20:45:24.772Z,1023.98
2016-10-07T20:45:50.389Z,1023.96
2016-10-07T20:46:16.035Z,1023.97
2016-10-07T20:46:41.626Z,1023.96
2016-10-07T20:47:07.189Z,1023.98
2016-10-07T20:47:32.886Z,1023.99
2016-10-07T20:47:58.467Z,1023.99
2016-10-07T20:48:24.021Z,1024
2016-10-07T20:48:49.586Z,1024
2016-10-07T20:49:15.127Z,1023.99
2016-10-07T20:49:40.701Z,1023.96
2016-10-07T20:50:06.257Z,1024
2016-10-07T20:50:31.822Z,1024.01
2016-10-07T20:50:57.375Z,1024.01
2016-10-07T20:51:23.039Z,1024.03
2016-10-07T20:51:48.615Z,1024
2016-10-07T20:52:14.335Z,1024.02
2016-10-07T20:52:40.023Z,1023.99
2016-10-07T20:53:05.599Z,1024.01
2016-10-07T20:53:31.246Z,1024.05
2016-10-07T20:53:56.850Z,1024.02
2016-10-07T20:54:22.533Z,1024.07
2016-10-07T20:54:48.124Z,1024.06
2016-10-07T20:55:14.270Z,1024.05
2016-10-07T20:55:39.829Z,1024.07
2016-10-07T20:56:05.437Z,1024.06
2016-10-07T20:56:31.002Z,1024.04
2016-10-07T20:56:56.665Z,1024.08
2016-10-07T20:57:22.444Z,1024.05
2016-10-07T20:57:48.028Z,1024.05
2016-10-07T20:58:13.613Z,1023.98
2016-10-07T20:58:39.250Z,1024
2016-10-07T20:59:04.834Z,1024.07
2016-10-07T20:59:30.407Z,1024.04
2016-10-07T20:59:56.016Z,1024.04
2016-10-07T21:00:21.719Z,1024
2016-10-07T21:00:47.450Z,1024.02
2016-10-07T21:02:06.006Z,1024.05
2016-10-07T21:03:24.600Z,1024.09
2016-10-07T21:03:50.245Z,1024.08
2016-10-07T21:04:15.893Z,1024.1
2016-10-07T21:04:42.443Z,1024.11
2016-10-07T21:05:08.061Z,1024.09
2016-10-07T21:05:33.845Z,1024.11
2016-10-07T21:05:59.361Z,1024.14
2016-10-07T21:06:25.098Z,1024.13
2016-10-07T21:06:50.623Z,1024.11
2016-10-07T21:07:16.310Z,1024.07
2016-10-07T21:09:07.548Z,1024.13
2016-10-07T21:09:33.112Z,1024.14
2016-10-07T21:09:58.672Z,1024.09
2016-10-07T21:10:24.264Z,1024.12
2016-10-07T21:10:49.964Z,1024.13
2016-10-07T21:11:15.581Z,1024.1
2016-10-07T21:11:41.203Z,1024.13
2016-10-07T21:12:06.895Z,1024.13
2016-10-07T21:12:32.509Z,1024.1
2016-10-07T21:12:58.192Z,1024.15
2016-10-07T21:13:23.802Z,1024.09
2016-10-07T21:13:49.437Z,1024.11
2016-10-07T21:14:15.031Z,1024.13
2016-10-07T21:14:40.643Z,1024.08
2016-10-07T21:15:06.218Z,1024.14
2016-10-07T21:15:31.842Z,1024.11
2016-10-07T21:15:57.605Z,1024.1
2016-10-07T21:16:23.426Z,1024.09
2016-10-07T21:16:49.042Z,1024.08
2016-10-07T21:17:14.687Z,1024.12
2016-10-07T21:17:40.269Z,1024.11
2016-10-07T21:18:05.879Z,1024.11
2016-10-07T21:18:31.578Z,1024.09
2016-10-07T21:18:57.320Z,1024.08
2016-10-07T21:19:22.982Z,1024.04
2016-10-07T21:20:31.490Z,1024.07
2016-10-07T21:20:57.129Z,1024.08
2016-10-07T21:21:22.898Z,1024.09
2016-10-07T21:21:48.532Z,1024.07
2016-10-07T21:22:14.143Z,1024.1
2016-10-07T21:22:39.705Z,1024.07
2016-10-07T21:23:05.281Z,1024.08
2016-10-07T21:23:30.938Z,1024.05
2016-10-07T21:23:56.505Z,1024.05
2016-10-07T21:24:22.083Z,1024.07
2016-10-07T21:25:25.263Z,1024.07
2016-10-07T21:25:50.804Z,1024.06
2016-10-07T21:26:16.381Z,1024.08
2016-10-07T21:26:41.987Z,1024.08
2016-10-07T21:27:07.570Z,1024.06
2016-10-07T21:27:33.238Z,1024.04
2016-10-07T21:27:58.817Z,1024.04
2016-10-07T21:28:24.389Z,1024.09
2016-10-07T21:28:49.994Z,1024.05
2016-10-07T21:29:15.567Z,1024.09
2016-10-07T21:29:41.214Z,1024.03
2016-10-07T21:30:06.809Z,1024.07
2016-10-07T21:30:32.447Z,1024.06
2016-10-07T21:30:58.030Z,1024.05
2016-10-07T21:31:23.611Z,1024.04
2016-10-07T21:31:49.274Z,1024.01
2016-10-07T21:32:14.953Z,1024.08
2016-10-07T21:32:40.529Z,1024.04
2016-10-07T21:33:06.197Z,1024.01
2016-10-07T21:33:31.729Z,1024.04
2016-10-07T21:33:57.330Z,1024.06
2016-10-07T21:34:22.960Z,1024.07
2016-10-07T21:34:48.531Z,1024.04
2016-10-07T21:35:14.100Z,1024.04
2016-10-07T21:35:39.693Z,1024.03
2016-10-07T21:36:05.324Z,1024.03
2016-10-07T21:36:30.899Z,1024.05
2016-10-07T21:36:56.474Z,1024.04
2016-10-07T21:37:22.051Z,1024.04
2016-10-07T21:37:47.579Z,1024
2016-10-07T21:38:14.032Z,1024.03
2016-10-07T21:38:39.633Z,1024
2016-10-07T21:39:05.262Z,1023.98
2016-10-07T21:39:30.834Z,1024.01
2016-10-07T21:39:56.444Z,1023.95
2016-10-07T21:40:22.010Z,1024.01
2016-10-07T21:40:47.565Z,1023.99
2016-10-07T21:41:13.139Z,1024
2016-10-07T21:41:38.758Z,1023.99
2016-10-07T21:42:04.344Z,1024.05
2016-10-07T21:42:29.916Z,1024.05
2016-10-07T21:42:55.512Z,1023.99
2016-10-07T21:43:21.120Z,1024.01
2016-10-07T21:43:46.700Z,1024.01
2016-10-07T21:44:12.330Z,1024.01
2016-10-07T21:44:37.912Z,1024.02
2016-10-07T21:45:03.626Z,1024.02
2016-10-07T21:45:29.189Z,1024.03
2016-10-07T21:45:54.759Z,1024.03
2016-10-07T21:46:20.432Z,1024.04
2016-10-07T21:46:46.009Z,1024.01
2016-10-07T21:47:11.557Z,1024.05
2016-10-07T21:47:37.115Z,1024.02
2016-10-07T21:48:02.856Z,1024.02
2016-10-07T21:48:28.521Z,1023.99
2016-10-07T21:48:54.196Z,1024.01
2016-10-07T21:49:19.784Z,1024
2016-10-07T21:49:45.380Z,1023.97
2016-10-07T21:50:10.955Z,1023.96
2016-10-07T21:50:36.622Z,1024
2016-10-07T21:51:02.224Z,1024.02
2016-10-07T21:51:27.794Z,1023.96
2016-10-07T21:51:53.415Z,1023.99
2016-10-07T21:52:19.059Z,1023.95
2016-10-07T21:53:27.762Z,1023.96
2016-10-07T21:54:41.269Z,1023.93
2016-10-07T21:55:06.866Z,1023.96
2016-10-07T21:55:32.574Z,1023.96
2016-10-07T21:55:58.135Z,1023.91
2016-10-07T21:56:23.824Z,1023.95
2016-10-07T21:56:49.448Z,1023.94
2016-10-07T21:57:15.017Z,1023.95
2016-10-07T21:57:40.827Z,1023.94
2016-10-07T21:58:06.372Z,1023.99
2016-10-07T21:58:31.966Z,1024.01
2016-10-07T21:58:57.674Z,1023.96
2016-10-07T21:59:23.380Z,1024
2016-10-07T21:59:48.955Z,1023.96
2016-10-07T22:00:14.523Z,1023.97
2016-10-07T22:00:40.094Z,1023.97
2016-10-07T22:01:05.761Z,1024.01
2016-10-07T22:01:31.407Z,1023.99
2016-10-07T22:01:56.983Z,1023.97
2016-10-07T22:02:22.591Z,1023.97
2016-10-07T22:02:48.144Z,1023.99
2016-10-07T22:03:13.724Z,1023.99
2016-10-07T22:03:39.297Z,1023.96
2016-10-07T22:04:04.934Z,1023.96
2016-10-07T22:04:30.492Z,1023.96
2016-10-07T22:04:56.055Z,1023.96
2016-10-07T22:05:21.625Z,1023.95
2016-10-07T22:05:47.180Z,1023.99
2016-10-07T22:06:12.882Z,1023.95
2016-10-07T22:06:38.690Z,1023.95
2016-10-07T22:07:04.043Z,1023.93
2016-10-07T22:07:29.657Z,1023.95
2016-10-07T22:07:55.214Z,1023.93
2016-10-07T22:08:20.788Z,1023.93
2016-10-07T22:08:46.401Z,1023.93
2016-10-07T22:09:12.002Z,1023.91
2016-10-07T22:09:37.583Z,1023.89
2016-10-07T22:10:03.161Z,1023.93
2016-10-07T22:10:28.754Z,1023.92
2016-10-07T22:10:54.306Z,1023.93
2016-10-07T22:11:20.015Z,1023.9
2016-10-07T22:11:45.744Z,1023.93
2016-10-07T22:12:11.302Z,1023.93
2016-10-07T22:12:36.915Z,1023.92
2016-10-07T22:13:02.597Z,1023.9
2016-10-07T22:13:28.177Z,1023.93
2016-10-07T22:13:53.849Z,1023.93
2016-10-07T22:14:19.402Z,1023.89
2016-10-07T22:14:45.084Z,1023.93
2016-10-07T22:15:10.733Z,1023.91
2016-10-07T22:15:36.313Z,1023.89
2016-10-07T22:16:01.976Z,1023.89
2016-10-07T22:16:27.592Z,1023.9
2016-10-07T22:16:53.121Z,1023.88
2016-10-07T22:17:18.671Z,1023.9
2016-10-07T22:17:44.216Z,1023.89
2016-10-07T22:18:09.789Z,1023.9
2016-10-07T22:18:35.358Z,1023.88
2016-10-07T22:19:49.138Z,1023.86
2016-10-07T22:20:14.833Z,1023.84
2016-10-07T22:20:40.391Z,1023.88
2016-10-07T22:21:06.047Z,1023.88
2016-10-07T22:21:31.677Z,1023.85
2016-10-07T22:21:57.259Z,1023.84
2016-10-07T22:22:22.857Z,1023.89
2016-10-07T22:22:48.405Z,1023.85
2016-10-07T22:23:14.024Z,1023.87
2016-10-07T22:23:39.591Z,1023.83
2016-10-07T22:24:05.265Z,1023.87
2016-10-07T22:24:30.839Z,1023.86
2016-10-07T22:24:56.403Z,1023.85
2016-10-07T22:25:22.036Z,1023.82
2016-10-07T22:25:47.623Z,1023.83
2016-10-07T22:26:13.230Z,1023.82
2016-10-07T22:26:38.799Z,1023.87
2016-10-07T22:27:04.370Z,1023.81
2016-10-07T22:27:30.047Z,1023.83
2016-10-07T22:27:55.599Z,1023.81
2016-10-07T22:28:21.372Z,1023.84
2016-10-07T22:28:46.959Z,1023.83
2016-10-07T22:29:12.545Z,1023.79
2016-10-07T22:29:38.088Z,1023.84
2016-10-07T22:30:03.688Z,1023.83
2016-10-07T22:30:29.260Z,1023.82
2016-10-07T22:30:54.952Z,1023.83
2016-10-07T22:31:20.577Z,1023.81
2016-10-07T22:31:46.248Z,1023.81
2016-10-07T22:32:11.926Z,1023.82
2016-10-07T22:32:37.505Z,1023.81
2016-10-07T22:33:03.088Z,1023.86
2016-10-07T22:33:28.655Z,1023.83
2016-10-07T22:33:54.314Z,1023.85
2016-10-07T22:34:19.905Z,1023.85
2016-10-07T22:34:45.475Z,1023.84
2016-10-07T22:36:04.217Z,1023.84
2016-10-07T22:36:29.859Z,1023.87
2016-10-07T22:36:55.453Z,1023.9
2016-10-07T22:37:21.022Z,1023.89
2016-10-07T22:37:46.573Z,1023.92
2016-10-07T22:38:12.251Z,1023.94
2016-10-07T22:38:37.806Z,1023.91
2016-10-07T22:39:03.452Z,1023.91
2016-10-07T22:39:29.121Z,1023.92
2016-10-07T22:39:54.698Z,1023.91
2016-10-07T22:40:20.358Z,1023.96
2016-10-07T22:40:46.049Z,1023.92
2016-10-07T22:41:11.605Z,1023.97
2016-10-07T22:41:37.196Z,1023.95
2016-10-07T22:42:02.766Z,1023.96
2016-10-07T22:42:28.387Z,1023.98
2016-10-07T22:42:54.011Z,1023.99
2016-10-07T22:43:19.586Z,1023.99
2016-10-07T22:43:45.187Z,1024
2016-10-07T22:44:10.761Z,1024.01
2016-10-07T22:44:36.438Z,1023.96
2016-10-07T22:45:02.192Z,1023.98
2016-10-07T22:45:27.584Z,1023.96
2016-10-07T22:45:53.230Z,1023.93
2016-10-07T22:46:18.794Z,1023.92
2016-10-07T22:46:44.475Z,1023.97
2016-10-07T22:47:10.096Z,1023.97
2016-10-07T22:47:35.663Z,1023.94
2016-10-07T22:48:01.823Z,1023.93
2016-10-07T22:48:27.491Z,1023.92
2016-10-07T22:48:53.079Z,1023.97
2016-10-07T22:49:18.679Z,1023.96
2016-10-07T22:49:44.416Z,1023.98
2016-10-07T22:50:09.984Z,1023.99
2016-10-07T22:50:35.575Z,1023.98
2016-10-07T22:51:01.185Z,1024.02
2016-10-07T22:51:26.757Z,1024.03
2016-10-07T22:51:52.331Z,1023.98
2016-10-07T22:52:17.899Z,1024.01
2016-10-07T22:52:43.562Z,1024.03
2016-10-07T22:53:09.128Z,1023.99
2016-10-07T22:53:34.776Z,1024.01
2016-10-07T22:54:00.329Z,1023.97
2016-10-07T22:54:26.005Z,1023.99
2016-10-07T22:54:51.600Z,1023.99
2016-10-07T22:55:17.167Z,1023.99
2016-10-07T22:55:42.830Z,1024.01
2016-10-07T22:57:01.536Z,1024.04
2016-10-07T22:57:59.661Z,1024.04
2016-10-07T22:58:25.281Z,1024.04
2016-10-07T22:58:50.837Z,1024.05
2016-10-07T22:59:16.407Z,1024.04
2016-10-07T22:59:41.973Z,1024.04
2016-10-07T23:00:07.594Z,1024.04
2016-10-07T23:00:33.202Z,1024.05
2016-10-07T23:00:58.885Z,1024.09
